Time;durP1;ratioP1;P1;durP2;ratioP2;P2;SDS_P1;SDS_P2;PMS_P1;PMS_P2;Temp;Humidity;BMP_temperature;BMP_pressure;BME280_temperature;BME280_humidity;BME280_pressure;Samples;Min_cycle;Max_cycle;Signal;HPM_P1;HPM_P2
2022/03/09 00:01:19;;;;;;;2.28;1.80;;;2.00;99.90;;;;;;5013316;28;20049;-77
2022/03/09 00:03:44;;;;;;;4.20;2.60;;;1.90;99.90;;;;;;5013792;28;20098;-77
2022/03/09 00:06:10;;;;;;;2.30;1.95;;;1.90;99.90;;;;;;5031749;28;20491;-77
2022/03/09 00:08:36;;;;;;;3.20;1.60;;;1.80;99.90;;;;;;5014114;28;20470;-77
2022/03/09 00:11:01;;;;;;;3.55;2.03;;;1.90;99.90;;;;;;5014055;28;20223;-77
2022/03/09 00:13:27;;;;;;;2.63;2.00;;;1.80;99.90;;;;;;5013913;28;20049;-77
2022/03/09 00:15:52;;;;;;;4.20;2.40;;;1.80;99.90;;;;;;5032727;28;20136;-77
2022/03/09 00:18:19;;;;;;;3.10;2.17;;;1.80;99.90;;;;;;5032459;28;20056;-77
2022/03/09 00:20:45;;;;;;;4.25;2.28;;;1.70;99.90;;;;;;5031270;28;20152;-77
2022/03/09 00:23:11;;;;;;;2.53;2.05;;;1.70;99.90;;;;;;5031849;28;20052;-77
2022/03/09 00:25:36;;;;;;;3.25;2.03;;;1.70;99.90;;;;;;5044766;28;20045;-76
2022/03/09 00:28:02;;;;;;;3.53;2.38;;;1.60;99.90;;;;;;5049192;28;20131;-77
2022/03/09 00:30:27;;;;;;;7.85;2.28;;;1.60;99.90;;;;;;5050728;28;20127;-77
2022/03/09 00:32:53;;;;;;;5.13;2.13;;;1.60;99.90;;;;;;5050693;28;20445;-77
2022/03/09 00:35:18;;;;;;;2.85;2.00;;;1.60;99.90;;;;;;5050704;28;20454;-78
2022/03/09 00:37:44;;;;;;;5.43;2.20;;;1.50;99.90;;;;;;5050087;28;20400;-77
2022/03/09 00:40:10;;;;;;;3.53;2.15;;;1.60;99.90;;;;;;5050502;28;20076;-76
2022/03/09 00:42:39;;;;;;;5.47;2.05;;;1.60;99.90;;;;;;5049109;28;20053;-76
2022/03/09 00:45:06;;;;;;;4.60;2.13;;;1.60;99.90;;;;;;5050095;28;20060;-76
2022/03/09 00:47:32;;;;;;;5.20;2.35;;;1.60;99.90;;;;;;5049671;28;20088;-77
2022/03/09 00:49:58;;;;;;;5.07;2.70;;;1.60;99.90;;;;;;5049314;28;20076;-76
2022/03/09 00:52:23;;;;;;;4.30;2.75;;;1.60;99.90;;;;;;5051471;28;20052;-76
2022/03/09 00:54:49;;;;;;;3.33;2.30;;;1.60;99.90;;;;;;5049932;28;20041;-76
2022/03/09 00:57:15;;;;;;;4.68;2.83;;;1.50;99.90;;;;;;5050536;28;20118;-76
2022/03/09 00:59:41;;;;;;;10.85;3.45;;;1.50;99.90;;;;;;5050725;28;20041;-76
2022/03/09 01:02:06;;;;;;;8.35;2.45;;;1.50;99.90;;;;;;5050295;28;20045;-76
2022/03/09 01:04:34;;;;;;;4.82;2.35;;;1.50;99.90;;;;;;5050392;28;20470;-76
2022/03/09 01:06:59;;;;;;;4.15;2.40;;;1.40;99.90;;;;;;5049730;28;20048;-76
2022/03/09 01:09:25;;;;;;;4.47;2.47;;;1.40;99.90;;;;;;5049062;28;20502;-76
2022/03/09 01:11:51;;;;;;;4.47;2.30;;;1.40;99.90;;;;;;5049083;28;20084;-76
2022/03/09 01:14:16;;;;;;;3.53;2.38;;;1.30;99.90;;;;;;5049534;28;20041;-76
2022/03/09 01:16:42;;;;;;;6.25;2.42;;;1.30;99.90;;;;;;5048155;28;20954;-76
2022/03/09 01:19:07;;;;;;;4.03;2.17;;;1.30;99.90;;;;;;5050507;28;20163;-76
2022/03/09 01:21:34;;;;;;;3.05;2.75;;;1.20;99.90;;;;;;5050627;28;20505;-76
2022/03/09 01:24:00;;;;;;;6.78;2.30;;;1.20;99.90;;;;;;5050019;28;20037;-76
2022/03/09 01:26:26;;;;;;;2.50;1.95;;;1.10;99.90;;;;;;5050430;28;20052;-76
2022/03/09 01:28:52;;;;;;;2.70;2.30;;;1.00;99.90;;;;;;5041723;28;20586;-76
2022/03/09 01:31:17;;;;;;;3.63;2.35;;;1.00;99.90;;;;;;5049777;28;20080;-76
2022/03/09 01:33:43;;;;;;;4.35;2.70;;;1.00;99.90;;;;;;5050311;28;20151;-76
2022/03/09 01:36:09;;;;;;;3.35;2.50;;;1.00;99.90;;;;;;5032531;28;20053;-76
2022/03/09 01:38:35;;;;;;;3.75;2.75;;;1.00;99.90;;;;;;5040428;28;20048;-76
2022/03/09 01:41:01;;;;;;;3.60;2.67;;;1.00;99.90;;;;;;5050713;28;20037;-76
2022/03/09 01:43:27;;;;;;;3.28;2.92;;;1.00;99.90;;;;;;5049209;28;20041;-76
2022/03/09 01:45:52;;;;;;;5.70;2.92;;;1.10;99.90;;;;;;5049745;28;20045;-76
2022/03/09 01:48:18;;;;;;;3.97;2.72;;;0.90;99.90;;;;;;5054213;28;20053;-76
2022/03/09 01:50:44;;;;;;;6.72;3.45;;;0.90;99.90;;;;;;5053222;28;20049;-76
2022/03/09 01:53:11;;;;;;;2.88;2.63;;;0.90;99.90;;;;;;5053666;28;20448;-76
2022/03/09 01:55:38;;;;;;;4.38;2.45;;;0.90;99.90;;;;;;5053967;28;20049;-76
2022/03/09 01:58:03;;;;;;;3.83;3.08;;;0.90;99.90;;;;;;5035800;28;20113;-76
2022/03/09 02:00:29;;;;;;;3.80;2.75;;;0.90;99.90;;;;;;5053397;28;20489;-76
2022/03/09 02:02:54;;;;;;;5.30;3.13;;;0.80;99.90;;;;;;5036195;28;20049;-76
2022/03/09 02:05:20;;;;;;;4.07;3.38;;;1.10;99.90;;;;;;5053979;28;20144;-76
2022/03/09 02:10:31;;;;;;;3.38;2.88;;;0.90;99.90;;;;;;5033915;28;20061;-76
2022/03/09 02:12:56;;;;;;;5.00;3.17;;;0.90;99.90;;;;;;5015697;28;20045;-76
2022/03/09 02:15:23;;;;;;;4.47;2.72;;;0.90;99.90;;;;;;5034051;28;20057;-76
2022/03/09 02:17:48;;;;;;;4.68;3.40;;;0.90;99.90;;;;;;5016367;28;20156;-75
2022/03/09 02:20:14;;;;;;;4.82;3.35;;;0.90;99.90;;;;;;5033205;28;20132;-76
2022/03/09 02:22:42;;;;;;;4.05;2.90;;;1.10;99.90;;;;;;5022674;28;20049;-75
2022/03/09 02:25:10;;;;;;;6.97;3.30;;;0.90;99.90;;;;;;5033952;28;20492;-76
2022/03/09 02:27:36;;;;;;;6.57;3.45;;;1.00;99.90;;;;;;5014880;28;20427;-76
2022/03/09 02:30:04;;;;;;;5.70;3.10;;;0.90;99.90;;;;;;5033934;28;20049;-76
2022/03/09 02:32:30;;;;;;;5.45;2.60;;;0.80;99.90;;;;;;5036131;28;20072;-76
2022/03/09 02:34:56;;;;;;;4.55;3.08;;;0.90;99.90;;;;;;5052329;28;20084;-76
2022/03/09 02:37:22;;;;;;;6.72;3.20;;;0.90;99.90;;;;;;5042128;28;20036;-76
2022/03/09 02:39:47;;;;;;;7.03;3.13;;;0.80;99.90;;;;;;5053401;28;20053;-76
2022/03/09 02:42:13;;;;;;;5.38;3.60;;;0.80;99.90;;;;;;5052788;28;20055;-76
2022/03/09 02:44:39;;;;;;;3.95;3.55;;;0.90;99.90;;;;;;5053106;28;20691;-76
2022/03/09 02:47:05;;;;;;;3.85;3.08;;;0.70;99.90;;;;;;5053132;28;20102;-76
2022/03/09 02:49:31;;;;;;;4.18;3.17;;;0.70;99.90;;;;;;5051246;28;20049;-76
2022/03/09 02:51:57;;;;;;;4.07;2.90;;;0.70;99.90;;;;;;5053290;28;20044;-76
2022/03/09 02:54:22;;;;;;;6.82;4.00;;;0.60;99.90;;;;;;5053002;28;20537;-76
2022/03/09 02:56:48;;;;;;;5.35;3.88;;;0.60;99.90;;;;;;5052424;28;20056;-76
2022/03/09 02:59:13;;;;;;;4.38;3.20;;;0.50;99.90;;;;;;5053222;28;20401;-76
2022/03/09 03:01:39;;;;;;;6.25;3.85;;;0.50;99.90;;;;;;5052600;28;20487;-76
2022/03/09 03:04:05;;;;;;;5.35;3.28;;;0.50;99.90;;;;;;5052665;28;20044;-76
2022/03/09 03:06:30;;;;;;;5.43;4.07;;;0.40;99.90;;;;;;5051543;28;20048;-76
2022/03/09 03:08:56;;;;;;;7.80;4.47;;;0.40;99.90;;;;;;5051405;28;20048;-76
2022/03/09 03:11:22;;;;;;;4.25;3.35;;;0.30;99.90;;;;;;5052385;28;20060;-76
2022/03/09 03:13:49;;;;;;;4.28;3.70;;;0.30;99.90;;;;;;5051815;28;20056;-76
2022/03/09 03:16:15;;;;;;;3.97;3.13;;;0.40;99.90;;;;;;5052266;28;20052;-75
2022/03/09 03:18:40;;;;;;;4.03;3.22;;;0.30;99.90;;;;;;5052578;28;20045;-76
2022/03/09 03:21:06;;;;;;;4.57;3.58;;;0.30;99.90;;;;;;5052768;28;20041;-75
2022/03/09 03:23:34;;;;;;;5.05;3.35;;;0.30;99.90;;;;;;5050640;28;20581;-76
2022/03/09 03:26:00;;;;;;;8.13;3.75;;;0.30;99.90;;;;;;5052845;28;20083;-75
2022/03/09 03:28:26;;;;;;;4.22;3.30;;;0.30;99.90;;;;;;5052188;28;20040;-76
2022/03/09 03:30:52;;;;;;;4.97;3.40;;;0.40;99.90;;;;;;5051981;28;20052;-76
2022/03/09 03:33:19;;;;;;;10.40;4.10;;;0.40;99.90;;;;;;5052710;28;20045;-76
2022/03/09 03:35:46;;;;;;;6.22;4.00;;;0.30;99.90;;;;;;5050529;28;20045;-75
2022/03/09 03:38:11;;;;;;;5.93;4.18;;;0.40;99.90;;;;;;5036583;28;20076;-76
2022/03/09 03:40:38;;;;;;;5.25;3.35;;;0.40;99.90;;;;;;5050568;28;20091;-76
2022/03/09 03:43:04;;;;;;;6.40;3.75;;;0.20;99.90;;;;;;5032419;28;20132;-75
2022/03/09 03:45:30;;;;;;;5.28;3.83;;;0.20;99.90;;;;;;5013777;28;20053;-75
2022/03/09 03:47:55;;;;;;;6.10;4.10;;;0.20;99.90;;;;;;5022611;28;20045;-76
2022/03/09 03:50:21;;;;;;;6.35;3.65;;;0.20;99.90;;;;;;5052169;28;20091;-76
2022/03/09 03:52:47;;;;;;;6.65;4.00;;;0.10;99.90;;;;;;5050434;28;20044;-76
2022/03/09 03:55:13;;;;;;;5.78;4.30;;;0.20;99.90;;;;;;5050657;28;20110;-76
2022/03/09 03:57:38;;;;;;;5.28;3.80;;;0.20;99.90;;;;;;5051486;28;20106;-75
2022/03/09 04:00:05;;;;;;;6.97;4.60;;;0.30;99.90;;;;;;5051594;28;20045;-76
2022/03/09 04:02:31;;;;;;;6.78;3.75;;;0.20;99.90;;;;;;5040789;28;20067;-76
2022/03/09 04:04:57;;;;;;;7.15;4.55;;;0.20;99.90;;;;;;5051738;28;20123;-76
2022/03/09 04:07:22;;;;;;;5.57;3.38;;;0.10;99.90;;;;;;5049916;28;20562;-76
2022/03/09 04:09:48;;;;;;;7.90;4.90;;;0.10;99.90;;;;;;5051236;28;20049;-76
2022/03/09 04:12:13;;;;;;;5.07;4.00;;;0.00;99.90;;;;;;5050177;28;20048;-76
2022/03/09 04:14:39;;;;;;;9.45;5.22;;;0.00;99.90;;;;;;5049849;28;20122;-76
2022/03/09 04:17:05;;;;;;;6.18;4.38;;;0.00;99.90;;;;;;5051669;28;20071;-76
2022/03/09 04:19:30;;;;;;;7.97;3.83;;;-0.10;99.90;;;;;;5049568;28;20036;-76
2022/03/09 04:21:56;;;;;;;6.07;3.78;;;-0.10;99.90;;;;;;5051606;28;20057;-76
2022/03/09 04:24:22;;;;;;;7.82;4.53;;;-0.10;99.90;;;;;;5050218;28;20045;-76
2022/03/09 04:26:48;;;;;;;5.30;4.00;;;-0.10;99.90;;;;;;5050843;28;20422;-76
2022/03/09 04:29:13;;;;;;;8.90;4.72;;;-0.20;99.90;;;;;;5051603;28;20084;-76
2022/03/09 04:31:39;;;;;;;5.63;4.43;;;-0.10;99.90;;;;;;5049886;28;20481;-76
2022/03/09 04:34:05;;;;;;;9.02;4.50;;;-0.10;99.90;;;;;;5049615;28;20498;-76
2022/03/09 04:36:31;;;;;;;6.15;4.15;;;-0.20;99.90;;;;;;5049849;28;20091;-76
2022/03/09 04:38:56;;;;;;;9.30;4.45;;;-0.20;99.90;;;;;;5051248;28;20072;-76
2022/03/09 04:41:22;;;;;;;5.95;5.18;;;-0.30;99.90;;;;;;5050657;28;20049;-76
2022/03/09 04:43:48;;;;;;;6.85;4.97;;;-0.30;99.90;;;;;;5051438;28;20040;-76
2022/03/09 04:46:15;;;;;;;7.00;4.47;;;-0.30;99.90;;;;;;5051227;28;20041;-75
2022/03/09 04:48:41;;;;;;;7.50;5.22;;;-0.30;99.90;;;;;;5048860;28;20052;-76
2022/03/09 04:51:06;;;;;;;7.28;4.53;;;-0.20;99.90;;;;;;5051022;28;20044;-76
2022/03/09 04:53:32;;;;;;;5.97;4.13;;;-0.30;99.90;;;;;;5050531;28;20056;-76
2022/03/09 04:55:58;;;;;;;5.88;4.47;;;-0.30;99.90;;;;;;5050725;28;20040;-76
2022/03/09 04:58:24;;;;;;;6.10;4.75;;;-0.30;99.90;;;;;;5050556;28;20380;-76
2022/03/09 05:00:51;;;;;;;6.75;4.22;;;-0.30;99.90;;;;;;5050936;28;20047;-76
2022/03/09 05:03:16;;;;;;;6.38;4.28;;;-0.30;99.90;;;;;;5049492;28;20040;-76
2022/03/09 05:05:42;;;;;;;8.63;4.38;;;-0.30;99.90;;;;;;5038804;28;20498;-76
2022/03/09 05:08:09;;;;;;;5.63;4.10;;;-0.30;99.90;;;;;;5049399;28;20053;-76
2022/03/09 05:10:35;;;;;;;6.55;4.43;;;-0.30;99.90;;;;;;5050039;28;20392;-76
2022/03/09 05:13:01;;;;;;;6.38;4.40;;;-0.40;99.90;;;;;;5051021;28;20132;-75
2022/03/09 05:15:27;;;;;;;11.43;4.53;;;-0.40;99.90;;;;;;5050525;28;20124;-76
2022/03/09 05:17:53;;;;;;;6.72;4.50;;;-0.40;99.90;;;;;;5050398;28;20495;-76
2022/03/09 05:20:20;;;;;;;7.65;4.63;;;-0.40;99.90;;;;;;5049495;28;20115;-76
2022/03/09 05:22:47;;;;;;;6.88;4.55;;;-0.40;99.90;;;;;;5052605;28;20049;-76
2022/03/09 05:25:12;;;;;;;6.53;5.05;;;-0.50;99.90;;;;;;5055137;28;20076;-76
2022/03/09 05:27:39;;;;;;;6.00;4.57;;;-0.40;99.90;;;;;;5053236;28;20132;-76
2022/03/09 05:30:05;;;;;;;7.22;4.70;;;-0.30;99.90;;;;;;5054285;28;20037;-76
2022/03/09 05:32:31;;;;;;;7.70;4.82;;;-0.50;99.90;;;;;;5054617;28;20059;-76
2022/03/09 05:34:57;;;;;;;8.20;4.82;;;-0.50;99.90;;;;;;5054096;28;20041;-75
2022/03/09 05:37:23;;;;;;;8.18;4.95;;;-0.50;99.90;;;;;;5053094;28;20049;-76
2022/03/09 05:39:48;;;;;;;7.78;5.43;;;-0.50;99.90;;;;;;5046874;28;20052;-76
2022/03/09 05:42:14;;;;;;;5.38;4.05;;;-0.50;99.90;;;;;;5016582;28;20054;-76
2022/03/09 05:44:40;;;;;;;6.70;4.72;;;-0.50;99.90;;;;;;5015797;28;20049;-76
2022/03/09 05:47:07;;;;;;;8.40;5.57;;;-0.50;99.90;;;;;;5034481;28;20049;-75
2022/03/09 05:49:32;;;;;;;6.35;4.75;;;-0.50;99.90;;;;;;5016201;28;20089;-76
2022/03/09 05:51:58;;;;;;;7.70;4.65;;;-0.60;99.90;;;;;;5034077;28;20049;-76
2022/03/09 05:54:23;;;;;;;5.35;4.57;;;-0.60;99.90;;;;;;5016410;28;20099;-76
2022/03/09 05:56:49;;;;;;;7.57;5.05;;;-0.60;99.90;;;;;;5016081;28;20160;-75
2022/03/09 05:59:15;;;;;;;6.18;4.60;;;-0.60;99.90;;;;;;5034003;28;20120;-75
2022/03/09 06:01:41;;;;;;;9.10;4.65;;;-0.60;99.90;;;;;;5016109;28;20037;-75
2022/03/09 06:04:06;;;;;;;7.68;4.95;;;-0.60;99.90;;;;;;5051055;28;20151;-75
2022/03/09 06:06:32;;;;;;;9.77;4.72;;;-0.60;99.90;;;;;;5039643;28;20061;-76
2022/03/09 06:08:58;;;;;;;12.73;6.10;;;-0.50;99.90;;;;;;5034309;28;20501;-75
2022/03/09 06:11:23;;;;;;;8.57;4.60;;;-0.70;99.90;;;;;;5052214;28;20134;-76
2022/03/09 06:13:49;;;;;;;6.35;4.93;;;-0.70;99.90;;;;;;5052288;28;20070;-76
2022/03/09 06:16:15;;;;;;;6.28;4.43;;;-0.60;99.90;;;;;;5052698;28;20513;-76
2022/03/09 06:18:40;;;;;;;8.70;5.00;;;-0.70;99.90;;;;;;5052385;28;20421;-75
2022/03/09 06:21:06;;;;;;;7.30;5.22;;;-0.70;99.90;;;;;;5045385;28;20049;-76
2022/03/09 06:23:32;;;;;;;6.72;4.63;;;-0.60;99.90;;;;;;5053600;28;20060;-75
2022/03/09 06:25:57;;;;;;;7.93;5.53;;;-0.70;99.90;;;;;;5051509;28;20045;-76
2022/03/09 06:28:23;;;;;;;7.40;5.05;;;-0.70;99.90;;;;;;5052531;28;20150;-76
2022/03/09 06:30:49;;;;;;;13.82;5.20;;;-0.70;99.90;;;;;;5040657;28;20106;-75
2022/03/09 06:33:14;;;;;;;8.50;5.13;;;-0.60;99.90;;;;;;5052307;28;20498;-75
2022/03/09 06:35:40;;;;;;;8.07;4.93;;;-0.60;99.90;;;;;;5053332;28;20072;-75
2022/03/09 06:38:06;;;;;;;8.27;5.72;;;-0.60;99.90;;;;;;5053613;28;20099;-75
2022/03/09 06:40:31;;;;;;;7.90;4.90;;;-0.50;99.90;;;;;;5052533;28;20087;-75
2022/03/09 06:42:59;;;;;;;8.20;5.25;;;-0.50;99.90;;;;;;5053598;28;20044;-75
2022/03/09 06:45:26;;;;;;;11.10;6.32;;;-0.50;99.90;;;;;;5053178;28;20045;-75
2022/03/09 06:47:52;;;;;;;7.85;4.78;;;-0.40;99.90;;;;;;5052575;28;20076;-75
2022/03/09 06:50:18;;;;;;;8.50;5.28;;;-0.40;99.90;;;;;;5052351;28;20398;-75
2022/03/09 06:52:44;;;;;;;9.13;5.90;;;-0.30;99.90;;;;;;5039183;28;20048;-75
2022/03/09 06:55:12;;;;;;;9.07;5.47;;;-0.30;99.90;;;;;;5049955;28;20445;-76
2022/03/09 06:57:38;;;;;;;8.45;5.53;;;-0.20;99.90;;;;;;5041978;28;20057;-75
2022/03/09 07:00:11;;;;;;;5.97;4.55;;;-0.20;99.90;;;;;;5015062;28;20076;-76
2022/03/09 07:02:37;;;;;;;;;;;-0.10;99.90;;;;;;5015301;28;20049;-75
2022/03/09 07:05:02;;;;;;;7.90;5.68;;;0.00;99.90;;;;;;5015433;28;20445;-76
2022/03/09 07:07:28;;;;;;;8.55;5.45;;;-0.10;99.90;;;;;;5036861;28;20052;-75
2022/03/09 07:09:54;;;;;;;8.73;5.47;;;0.00;99.90;;;;;;5052497;28;20095;-76
2022/03/09 07:12:19;;;;;;;13.88;5.45;;;0.10;99.90;;;;;;5051835;28;20106;-76
2022/03/09 07:14:45;;;;;;;8.10;4.88;;;0.20;99.90;;;;;;5034673;28;20128;-76
2022/03/09 07:17:11;;;;;;;10.57;5.43;;;0.20;99.90;;;;;;5052151;28;20057;-76
2022/03/09 07:19:36;;;;;;;10.55;5.78;;;0.30;99.90;;;;;;5052531;28;20076;-76
2022/03/09 07:22:02;;;;;;;9.23;5.03;;;0.40;99.90;;;;;;5051192;28;20518;-76
2022/03/09 07:24:28;;;;;;;8.48;5.85;;;0.50;99.90;;;;;;5051816;28;20053;-75
2022/03/09 07:26:56;;;;;;;8.68;5.35;;;0.60;99.90;;;;;;5052604;28;20411;-76
2022/03/09 07:29:22;;;;;;;7.38;5.10;;;0.80;99.90;;;;;;5034168;28;20060;-76
2022/03/09 07:31:47;;;;;;;6.72;4.95;;;0.70;99.90;;;;;;5052025;28;20486;-76
2022/03/09 07:34:13;;;;;;;13.63;5.25;;;0.90;99.90;;;;;;5052464;28;20136;-76
2022/03/09 07:36:39;;;;;;;7.20;4.53;;;1.00;99.90;;;;;;5051553;28;20055;-76
2022/03/09 07:39:04;;;;;;;9.63;5.45;;;1.10;99.90;;;;;;5052258;28;20088;-76
2022/03/09 07:41:30;;;;;;;13.60;5.97;;;1.20;99.90;;;;;;5030286;28;20049;-76
2022/03/09 07:43:55;;;;;;;9.98;5.00;;;1.30;99.90;;;;;;5030709;28;20077;-76
2022/03/09 07:46:21;;;;;;;9.85;6.75;;;1.40;99.90;;;;;;5033100;28;20120;-77
2022/03/09 07:48:46;;;;;;;8.65;5.70;;;1.50;99.90;;;;;;5049016;28;20041;-75
2022/03/09 07:51:12;;;;;;;9.68;5.63;;;1.60;99.90;;;;;;5051825;28;20057;-75
2022/03/09 07:53:42;;;;;;;8.93;6.18;;;1.80;99.90;;;;;;5050536;28;20495;-74
2022/03/09 07:56:10;;;;;;;8.35;6.20;;;1.90;99.90;;;;;;5052088;28;20048;-75
2022/03/09 07:58:36;;;;;;;8.55;5.60;;;2.00;99.90;;;;;;5049833;28;20064;-75
2022/03/09 08:01:01;;;;;;;11.63;5.93;;;2.10;99.90;;;;;;5050623;28;20048;-74
2022/03/09 08:03:27;;;;;;;8.48;5.43;;;2.20;99.90;;;;;;5042067;28;20045;-74
2022/03/09 08:05:52;;;;;;;8.00;5.18;;;2.30;99.90;;;;;;5040058;28;20419;-77
2022/03/09 08:08:18;;;;;;;10.63;6.63;;;2.40;99.90;;;;;;5028952;28;20053;-74
2022/03/09 08:10:43;;;;;;;24.25;7.82;;;2.60;99.90;;;;;;5050026;28;20044;-74
2022/03/09 08:13:09;;;;;;;8.40;5.97;;;2.60;99.90;;;;;;5041315;28;20061;-74
2022/03/09 08:15:37;;;;;;;11.05;6.68;;;2.70;99.90;;;;;;5044462;28;20132;-74
2022/03/09 08:18:03;;;;;;;8.63;5.75;;;2.90;99.90;;;;;;5048124;28;20119;-74
2022/03/09 08:20:29;;;;;;;7.32;5.57;;;3.00;99.90;;;;;;5049922;28;20118;-74
2022/03/09 08:22:54;;;;;;;8.18;5.63;;;3.10;99.90;;;;;;5051645;28;20483;-74
2022/03/09 08:25:20;;;;;;;10.32;6.15;;;3.20;99.90;;;;;;5033679;28;20076;-72
2022/03/09 08:27:46;;;;;;;8.85;6.57;;;3.30;99.90;;;;;;5032585;28;20056;-72
2022/03/09 08:30:11;;;;;;;12.50;6.68;;;3.40;99.90;;;;;;5051419;28;20100;-73
2022/03/09 08:32:37;;;;;;;10.05;5.85;;;3.60;99.90;;;;;;5049105;28;20045;-73
2022/03/09 08:35:03;;;;;;;12.10;5.95;;;3.70;99.90;;;;;;5051612;28;20120;-73
2022/03/09 08:37:29;;;;;;;8.40;6.63;;;3.80;99.90;;;;;;5049677;28;20106;-73
2022/03/09 08:39:54;;;;;;;9.05;5.35;;;3.90;99.90;;;;;;5049292;28;20040;-72
2022/03/09 08:42:20;;;;;;;13.02;7.38;;;4.10;99.90;;;;;;5045606;28;20059;-72
2022/03/09 08:44:46;;;;;;;6.97;5.38;;;4.20;99.90;;;;;;5050830;28;20094;-72
2022/03/09 08:47:11;;;;;;;8.90;5.80;;;4.40;99.90;;;;;;5038354;28;20091;-73
2022/03/09 08:49:39;;;;;;;5.47;4.75;;;4.50;99.90;;;;;;5050890;28;20467;-75
2022/03/09 08:52:10;;;;;;;8.40;6.22;;;4.60;99.90;;;;;;5044941;28;20876;-74
2022/03/09 08:54:36;;;;;;;8.90;6.07;;;4.80;99.90;;;;;;5028732;28;20052;-74
2022/03/09 08:57:02;;;;;;;12.23;6.97;;;4.90;99.90;;;;;;5050306;28;20406;-75
2022/03/09 08:59:28;;;;;;;14.00;5.82;;;5.00;99.90;;;;;;5032370;28;20044;-75
2022/03/09 09:01:54;;;;;;;9.38;6.53;;;5.10;99.90;;;;;;5047484;28;20098;-74
2022/03/09 09:04:19;;;;;;;9.50;6.22;;;5.20;99.90;;;;;;5020594;28;20099;-75
2022/03/09 09:06:45;;;;;;;11.27;5.55;;;5.30;99.90;;;;;;5022110;28;20056;-75
2022/03/09 09:09:11;;;;;;;8.18;5.75;;;5.40;99.90;;;;;;5028600;28;20446;-76
2022/03/09 09:11:38;;;;;;;12.43;6.38;;;5.50;99.90;;;;;;5039999;28;20076;-75
2022/03/09 09:14:03;;;;;;;8.27;5.78;;;5.60;99.90;;;;;;5035716;28;20053;-74
2022/03/09 09:16:29;;;;;;;7.63;5.65;;;5.60;99.90;;;;;;5028913;28;20668;-74
2022/03/09 09:18:55;;;;;;;9.15;6.25;;;5.70;99.90;;;;;;5031682;28;20042;-75
2022/03/09 09:21:20;;;;;;;8.57;6.28;;;5.80;99.90;;;;;;5046352;28;20421;-73
2022/03/09 09:23:46;;;;;;;8.70;5.90;;;5.90;99.90;;;;;;5031639;28;20060;-77
2022/03/09 09:26:15;;;;;;;9.90;6.05;;;6.00;99.90;;;;;;5021857;28;20069;-77
2022/03/09 09:28:41;;;;;;;11.43;5.85;;;6.10;99.90;;;;;;5031615;28;20037;-76
2022/03/09 09:31:08;;;;;;;8.07;5.88;;;6.20;99.90;;;;;;5050250;28;20053;-74
2022/03/09 09:33:34;;;;;;;8.10;5.75;;;6.30;99.90;;;;;;5022804;28;20053;-73
2022/03/09 09:36:00;;;;;;;9.55;5.78;;;6.50;99.50;;;;;;5019663;28;20067;-72
2022/03/09 09:38:27;;;;;;;8.40;5.60;;;6.60;99.90;;;;;;5026468;28;20076;-71
2022/03/09 09:40:55;;;;;;;9.57;6.72;;;6.70;99.30;;;;;;5022819;28;20058;-70
2022/03/09 09:43:22;;;;;;;8.25;5.75;;;6.80;97.40;;;;;;5012015;28;20120;-70
2022/03/09 09:45:48;;;;;;;11.60;6.35;;;6.80;96.90;;;;;;5012580;28;20049;-70
2022/03/09 09:48:14;;;;;;;8.13;6.40;;;6.90;95.80;;;;;;5030003;28;20574;-71
2022/03/09 09:50:42;;;;;;;7.68;6.32;;;7.00;95.70;;;;;;5012211;28;20046;-71
2022/03/09 09:53:13;;;;;;;6.25;5.47;;;7.10;94.80;;;;;;5012985;28;20060;-72
2022/03/09 09:55:41;;;;;;;8.88;6.10;;;7.20;94.40;;;;;;5012406;28;20060;-72
2022/03/09 09:58:07;;;;;;;10.90;6.30;;;7.30;93.00;;;;;;5027333;28;20064;-76
2022/03/09 10:00:34;;;;;;;10.43;5.60;;;7.30;92.10;;;;;;5042447;28;20370;-75
2022/03/09 10:03:00;;;;;;;7.22;6.53;;;7.40;92.70;;;;;;5039905;28;20094;-73
2022/03/09 10:05:26;;;;;;;7.20;5.80;;;7.50;91.90;;;;;;5026414;28;20535;-73
2022/03/09 10:08:04;;;;;;;8.55;6.00;;;7.60;90.70;;;;;;5047461;28;20551;-74
2022/03/09 10:10:30;;;;;;;10.52;5.95;;;7.70;88.10;;;;;;5035669;28;20056;-73
2022/03/09 10:13:18;;;;;;;7.47;5.90;;;7.80;89.10;;;;;;5030685;28;20041;-73
2022/03/09 10:15:46;;;;;;;7.85;6.10;;;7.80;89.20;;;;;;5047361;28;20521;-73
2022/03/09 10:18:15;;;;;;;7.97;5.82;;;8.00;89.30;;;;;;5035294;28;20151;-74
2022/03/09 10:20:42;;;;;;;6.63;5.80;;;8.10;86.50;;;;;;5033835;28;20052;-74
2022/03/09 10:23:08;;;;;;;9.18;5.32;;;8.20;87.00;;;;;;5030918;28;20056;-73
2022/03/09 10:25:34;;;;;;;11.60;5.80;;;8.20;88.10;;;;;;5023381;28;20061;-74
2022/03/09 10:28:08;;;;;;;7.07;5.97;;;8.30;86.80;;;;;;5047571;28;20126;-74
2022/03/09 10:30:35;;;;;;;9.25;6.57;;;8.40;84.30;;;;;;5023634;28;20051;-74
2022/03/09 10:33:02;;;;;;;6.50;5.18;;;8.40;83.10;;;;;;5039152;28;20060;-74
2022/03/09 10:35:31;;;;;;;9.15;5.93;;;8.40;83.90;;;;;;5051863;28;20131;-74
2022/03/09 10:38:02;;;;;;;8.38;5.50;;;8.50;84.30;;;;;;5034409;28;20046;-73
2022/03/09 10:40:29;;;;;;;9.32;6.20;;;8.60;85.00;;;;;;5049899;28;20041;-73
2022/03/09 10:43:12;;;;;;;17.92;6.28;;;8.60;84.20;;;;;;5053428;28;20049;-73
2022/03/09 10:46:06;;;;;;;11.15;5.95;;;8.70;82.00;;;;;;5037601;28;20056;-73
2022/03/09 10:48:52;;;;;;;8.88;5.85;;;8.80;80.70;;;;;;5014775;28;20057;-74
2022/03/09 10:51:35;;;;;;;11.02;6.28;;;8.80;79.00;;;;;;5015762;28;20060;-74
2022/03/09 10:54:08;;;;;;;7.75;6.05;;;8.80;77.40;;;;;;5015154;28;20049;-73
2022/03/09 10:56:35;;;;;;;8.80;6.07;;;8.90;79.90;;;;;;5036954;28;20123;-73
2022/03/09 10:59:24;;;;;;;9.05;5.85;;;9.00;80.00;;;;;;5043868;28;20053;-73
2022/03/09 11:02:10;;;;;;;8.38;6.05;;;9.00;78.10;;;;;;5051279;28;20128;-74
2022/03/09 11:04:37;;;;;;;8.05;6.22;;;9.10;79.30;;;;;;5051676;28;20073;-74
2022/03/09 11:07:04;;;;;;;8.63;6.20;;;9.30;77.40;;;;;;5042292;28;20049;-75
2022/03/09 11:09:31;;;;;;;8.00;6.30;;;9.30;77.00;;;;;;5042049;28;20064;-75
2022/03/09 11:11:57;;;;;;;9.55;5.80;;;9.40;74.00;;;;;;5051133;28;20068;-76
2022/03/09 11:14:26;;;;;;;9.75;6.60;;;9.40;71.90;;;;;;5040827;28;20053;-75
2022/03/09 11:16:53;;;;;;;6.22;5.57;;;9.50;73.30;;;;;;5024197;28;20406;-74
2022/03/09 11:19:19;;;;;;;9.85;5.72;;;9.50;72.20;;;;;;5052670;28;20041;-75
2022/03/09 11:21:45;;;;;;;8.73;6.65;;;9.60;72.90;;;;;;5034079;28;20056;-76
2022/03/09 11:24:12;;;;;;;9.07;6.88;;;9.70;73.90;;;;;;5052691;28;20082;-75
2022/03/09 11:26:43;;;;;;;8.70;6.82;;;9.80;74.20;;;;;;5051810;28;20041;-75
2022/03/09 11:29:09;;;;;;;10.23;6.35;;;9.90;72.20;;;;;;5033654;28;20056;-75
2022/03/09 11:31:44;;;;;;;7.97;6.32;;;9.90;72.00;;;;;;5030622;28;20067;-76
2022/03/09 11:34:46;;;;;;;9.50;6.53;;;10.00;69.40;;;;;;5031732;28;20455;-75
2022/03/09 11:37:16;;;;;;;6.97;6.00;;;10.10;69.60;;;;;;5027590;28;20048;-76
2022/03/09 11:39:47;;;;;;;7.82;5.97;;;10.10;71.90;;;;;;5037671;28;20053;-74
2022/03/09 11:42:22;;;;;;;10.45;6.70;;;10.00;72.00;;;;;;5022961;28;20057;-74
2022/03/09 11:44:52;;;;;;;9.20;6.32;;;9.90;71.70;;;;;;5037261;28;20500;-73
2022/03/09 11:47:19;;;;;;;13.57;6.35;;;9.90;70.40;;;;;;5041710;28;20486;-72
2022/03/09 11:49:52;;;;;;;9.80;6.00;;;9.90;71.20;;;;;;5030220;28;20042;-73
2022/03/09 11:52:19;;;;;;;7.97;6.13;;;9.80;72.20;;;;;;5014471;28;20085;-72
2022/03/09 11:54:52;;;;;;;9.15;6.82;;;9.80;72.80;;;;;;5037957;28;20123;-73
2022/03/09 11:57:17;;;;;;;;;;;9.80;75.60;;;;;;5043945;28;20391;-74
2022/03/09 11:59:58;;;;;;;6.70;5.93;;;9.80;73.80;;;;;;5029320;28;19959;-72
2022/03/09 12:02:36;;;;;;;7.57;5.85;;;9.90;74.20;;;;;;5047481;28;20053;-74
2022/03/09 12:05:04;;;;;;;10.27;6.53;;;9.90;74.10;;;;;;5049243;28;20041;-74
2022/03/09 12:07:34;;;;;;;9.40;6.32;;;9.90;72.30;;;;;;5029419;28;20063;-73
2022/03/09 12:10:12;;;;;;;11.20;6.47;;;9.90;72.60;;;;;;5033388;28;20088;-74
2022/03/09 12:13:08;;;;;;;13.02;5.88;;;9.90;72.60;;;;;;5033046;28;20045;-73
2022/03/09 12:15:59;;;;;;;7.60;6.15;;;10.00;69.60;;;;;;5051085;28;20045;-75
2022/03/09 12:18:45;;;;;;;7.85;5.88;;;10.10;72.60;;;;;;5032735;28;20437;-75
2022/03/09 12:21:17;;;;;;;9.73;6.97;;;10.10;71.10;;;;;;5024584;28;20446;-76
2022/03/09 12:24:05;;;;;;;11.75;7.30;;;10.20;69.20;;;;;;5031078;28;20053;-77
2022/03/09 12:26:42;;;;;;;9.60;7.20;;;10.30;67.00;;;;;;5020568;28;20469;-77
2022/03/09 12:29:25;;;;;;;9.85;6.80;;;10.30;67.10;;;;;;5030838;28;20175;-75
2022/03/09 12:32:14;;;;;;;11.00;6.95;;;10.30;67.20;;;;;;5012422;28;20053;-75
2022/03/09 12:34:43;;;;;;;7.85;6.45;;;10.40;69.40;;;;;;5022249;28;20049;-75
2022/03/09 12:37:19;;;;;;;8.00;6.55;;;10.50;68.00;;;;;;5033442;28;20044;-78
2022/03/09 12:39:53;;;;;;;8.15;5.57;;;10.60;66.20;;;;;;5032606;28;20081;-77
2022/03/09 12:42:19;;;;;;;9.30;6.55;;;10.60;66.30;;;;;;5033177;28;20045;-75
2022/03/09 12:44:46;;;;;;;10.07;6.45;;;10.70;66.90;;;;;;5044438;28;20536;-75
2022/03/09 12:47:12;;;;;;;11.27;7.18;;;10.70;67.00;;;;;;5029277;28;20055;-74
2022/03/09 12:49:46;;;;;;;10.35;6.30;;;10.80;66.20;;;;;;5030790;28;20116;-75
2022/03/09 12:52:17;;;;;;;8.48;6.22;;;10.80;67.60;;;;;;5021794;28;20126;-76
2022/03/09 12:54:52;;;;;;;8.73;6.22;;;10.90;65.60;;;;;;5041071;28;20049;-75
2022/03/09 12:57:29;;;;;;;8.68;6.43;;;10.90;65.80;;;;;;5029628;28;20451;-74